Terminal Aerodrome Forecast
Issued by NWS

Home | Current Version | Previous Version | Graphics & Text | Print | Product List | Glossary On
Versions: 1 2 3 4 5 6 7 8 9 10 11 12 13 14 15 16 17 18 19
035
FTUS43 KICT 261720
TAFRSL
TAF
KRSL 261720Z 2618/2718 13007KT P6SM SCT025 BKN040
     FM270000 13005KT P6SM SCT250
     FM271200 17005KT P6SM SCT035
     FM271400 17006KT P6SM SCT050=

USA.gov is the U.S. government's official web portal to all federal, state and local government web resources and services.